sensor_id;sensor_type;location;lat;lon;timestamp;P1;durP1;ratioP1;P2;durP2;ratioP2
46429;SDS011;32131;53.454;-6.180;2023-08-06T00:00:27;2.10;;;0.90;;
46429;SDS011;32131;53.454;-6.180;2023-08-06T00:02:55;2.47;;;1.00;;
46429;SDS011;32131;53.454;-6.180;2023-08-06T00:05:23;4.65;;;1.23;;
46429;SDS011;32131;53.454;-6.180;2023-08-06T00:07:53;2.70;;;1.10;;
46429;SDS011;32131;53.454;-6.180;2023-08-06T00:10:21;3.72;;;0.63;;
46429;SDS011;32131;53.454;-6.180;2023-08-06T00:12:49;3.53;;;0.98;;
46429;SDS011;32131;53.454;-6.180;2023-08-06T00:15:18;2.58;;;1.08;;
46429;SDS011;32131;53.454;-6.180;2023-08-06T00:17:46;3.25;;;1.13;;
46429;SDS011;32131;53.454;-6.180;2023-08-06T00:20:14;3.05;;;1.08;;
46429;SDS011;32131;53.454;-6.180;2023-08-06T00:22:42;4.97;;;1.05;;
46429;SDS011;32131;53.454;-6.180;2023-08-06T00:25:12;6.68;;;1.13;;
46429;SDS011;32131;53.454;-6.180;2023-08-06T00:27:41;3.58;;;1.35;;
46429;SDS011;32131;53.454;-6.180;2023-08-06T00:30:09;3.47;;;0.93;;
46429;SDS011;32131;53.454;-6.180;2023-08-06T00:32:38;2.28;;;1.20;;
46429;SDS011;32131;53.454;-6.180;2023-08-06T00:35:06;3.03;;;1.00;;
46429;SDS011;32131;53.454;-6.180;2023-08-06T00:37:35;3.00;;;1.40;;
46429;SDS011;32131;53.454;-6.180;2023-08-06T00:40:03;2.65;;;0.90;;
46429;SDS011;32131;53.454;-6.180;2023-08-06T00:42:34;2.40;;;1.30;;
46429;SDS011;32131;53.454;-6.180;2023-08-06T00:45:02;5.03;;;1.30;;
46429;SDS011;32131;53.454;-6.180;2023-08-06T00:47:31;2.30;;;1.08;;
46429;SDS011;32131;53.454;-6.180;2023-08-06T00:49:59;2.20;;;1.25;;
46429;SDS011;32131;53.454;-6.180;2023-08-06T00:52:27;3.10;;;1.58;;
46429;SDS011;32131;53.454;-6.180;2023-08-06T00:54:56;3.47;;;1.73;;
46429;SDS011;32131;53.454;-6.180;2023-08-06T00:57:24;2.05;;;1.10;;
46429;SDS011;32131;53.454;-6.180;2023-08-06T00:59:55;5.88;;;1.42;;
46429;SDS011;32131;53.454;-6.180;2023-08-06T01:02:23;2.38;;;1.27;;
46429;SDS011;32131;53.454;-6.180;2023-08-06T01:04:52;5.18;;;1.30;;
46429;SDS011;32131;53.454;-6.180;2023-08-06T01:07:24;2.38;;;1.20;;
46429;SDS011;32131;53.454;-6.180;2023-08-06T01:10:10;5.97;;;1.20;;
46429;SDS011;32131;53.454;-6.180;2023-08-06T01:12:51;1.88;;;1.08;;
46429;SDS011;32131;53.454;-6.180;2023-08-06T01:15:30;3.00;;;1.30;;
46429;SDS011;32131;53.454;-6.180;2023-08-06T01:18:02;2.78;;;1.25;;
46429;SDS011;32131;53.454;-6.180;2023-08-06T01:20:33;3.70;;;1.77;;
46429;SDS011;32131;53.454;-6.180;2023-08-06T01:23:01;4.88;;;1.42;;
46429;SDS011;32131;53.454;-6.180;2023-08-06T01:25:29;4.63;;;1.60;;
46429;SDS011;32131;53.454;-6.180;2023-08-06T01:28:03;2.95;;;1.40;;
46429;SDS011;32131;53.454;-6.180;2023-08-06T01:30:39;2.20;;;1.52;;
46429;SDS011;32131;53.454;-6.180;2023-08-06T01:33:10;5.07;;;1.60;;
46429;SDS011;32131;53.454;-6.180;2023-08-06T01:35:45;4.70;;;1.40;;
46429;SDS011;32131;53.454;-6.180;2023-08-06T01:38:15;5.75;;;1.70;;
46429;SDS011;32131;53.454;-6.180;2023-08-06T01:40:43;5.18;;;1.60;;
46429;SDS011;32131;53.454;-6.180;2023-08-06T01:43:11;4.13;;;1.50;;
46429;SDS011;32131;53.454;-6.180;2023-08-06T01:45:39;5.82;;;1.35;;
46429;SDS011;32131;53.454;-6.180;2023-08-06T01:48:07;7.53;;;1.63;;
46429;SDS011;32131;53.454;-6.180;2023-08-06T01:50:36;2.90;;;1.17;;
46429;SDS011;32131;53.454;-6.180;2023-08-06T01:53:05;5.07;;;1.70;;
46429;SDS011;32131;53.454;-6.180;2023-08-06T01:55:33;4.10;;;1.85;;
46429;SDS011;32131;53.454;-6.180;2023-08-06T01:58:01;7.00;;;1.42;;
46429;SDS011;32131;53.454;-6.180;2023-08-06T02:00:33;3.83;;;1.55;;
46429;SDS011;32131;53.454;-6.180;2023-08-06T02:03:01;4.80;;;1.88;;
46429;SDS011;32131;53.454;-6.180;2023-08-06T02:05:29;4.63;;;1.42;;
46429;SDS011;32131;53.454;-6.180;2023-08-06T02:07:57;6.70;;;1.73;;
46429;SDS011;32131;53.454;-6.180;2023-08-06T02:10:27;5.88;;;1.70;;
46429;SDS011;32131;53.454;-6.180;2023-08-06T02:12:55;9.52;;;1.83;;
46429;SDS011;32131;53.454;-6.180;2023-08-06T02:15:25;13.23;;;1.60;;
46429;SDS011;32131;53.454;-6.180;2023-08-06T02:17:54;3.78;;;1.50;;
46429;SDS011;32131;53.454;-6.180;2023-08-06T02:20:22;4.80;;;2.00;;
46429;SDS011;32131;53.454;-6.180;2023-08-06T02:22:50;5.03;;;1.55;;
46429;SDS011;32131;53.454;-6.180;2023-08-06T02:25:18;6.72;;;1.70;;
46429;SDS011;32131;53.454;-6.180;2023-08-06T02:27:48;11.15;;;1.77;;
46429;SDS011;32131;53.454;-6.180;2023-08-06T02:30:20;3.58;;;2.00;;
46429;SDS011;32131;53.454;-6.180;2023-08-06T02:32:52;5.85;;;1.60;;
46429;SDS011;32131;53.454;-6.180;2023-08-06T02:35:20;2.55;;;1.58;;
46429;SDS011;32131;53.454;-6.180;2023-08-06T02:37:48;3.50;;;1.40;;
46429;SDS011;32131;53.454;-6.180;2023-08-06T02:40:16;4.53;;;1.50;;
46429;SDS011;32131;53.454;-6.180;2023-08-06T02:42:45;2.50;;;1.30;;
46429;SDS011;32131;53.454;-6.180;2023-08-06T02:45:14;4.50;;;1.65;;
46429;SDS011;32131;53.454;-6.180;2023-08-06T02:47:42;5.10;;;1.63;;
46429;SDS011;32131;53.454;-6.180;2023-08-06T02:50:11;5.45;;;1.88;;
46429;SDS011;32131;53.454;-6.180;2023-08-06T02:52:39;6.22;;;1.42;;
46429;SDS011;32131;53.454;-6.180;2023-08-06T02:55:07;3.05;;;1.60;;
46429;SDS011;32131;53.454;-6.180;2023-08-06T02:57:35;4.20;;;1.80;;
46429;SDS011;32131;53.454;-6.180;2023-08-06T03:00:04;3.85;;;1.67;;
46429;SDS011;32131;53.454;-6.180;2023-08-06T03:02:35;4.55;;;2.00;;
46429;SDS011;32131;53.454;-6.180;2023-08-06T03:05:03;3.75;;;2.10;;
46429;SDS011;32131;53.454;-6.180;2023-08-06T03:07:32;8.05;;;2.25;;
46429;SDS011;32131;53.454;-6.180;2023-08-06T03:10:02;5.68;;;2.00;;
46429;SDS011;32131;53.454;-6.180;2023-08-06T03:12:30;6.07;;;2.05;;
46429;SDS011;32131;53.454;-6.180;2023-08-06T03:14:59;10.68;;;2.10;;
46429;SDS011;32131;53.454;-6.180;2023-08-06T03:17:27;7.00;;;2.20;;
46429;SDS011;32131;53.454;-6.180;2023-08-06T03:19:56;6.78;;;2.45;;
46429;SDS011;32131;53.454;-6.180;2023-08-06T03:22:25;6.28;;;1.90;;
46429;SDS011;32131;53.454;-6.180;2023-08-06T03:24:53;9.02;;;1.90;;
46429;SDS011;32131;53.454;-6.180;2023-08-06T03:27:21;3.83;;;1.73;;
46429;SDS011;32131;53.454;-6.180;2023-08-06T03:29:49;7.72;;;1.90;;
46429;SDS011;32131;53.454;-6.180;2023-08-06T03:32:17;9.70;;;2.03;;
46429;SDS011;32131;53.454;-6.180;2023-08-06T03:34:45;9.35;;;2.20;;
46429;SDS011;32131;53.454;-6.180;2023-08-06T03:37:17;4.30;;;2.03;;
46429;SDS011;32131;53.454;-6.180;2023-08-06T03:39:45;5.78;;;2.00;;
46429;SDS011;32131;53.454;-6.180;2023-08-06T03:42:13;4.78;;;1.85;;
46429;SDS011;32131;53.454;-6.180;2023-08-06T03:44:41;5.18;;;1.70;;
46429;SDS011;32131;53.454;-6.180;2023-08-06T03:47:10;4.03;;;2.08;;
46429;SDS011;32131;53.454;-6.180;2023-08-06T03:49:38;5.18;;;1.90;;
46429;SDS011;32131;53.454;-6.180;2023-08-06T03:52:06;6.15;;;1.60;;
46429;SDS011;32131;53.454;-6.180;2023-08-06T03:54:36;6.90;;;2.08;;
46429;SDS011;32131;53.454;-6.180;2023-08-06T03:57:07;6.30;;;2.38;;
46429;SDS011;32131;53.454;-6.180;2023-08-06T03:59:36;4.95;;;1.70;;
46429;SDS011;32131;53.454;-6.180;2023-08-06T04:02:04;5.75;;;1.88;;
46429;SDS011;32131;53.454;-6.180;2023-08-06T04:04:32;3.60;;;2.03;;
46429;SDS011;32131;53.454;-6.180;2023-08-06T04:07:00;5.30;;;2.10;;
46429;SDS011;32131;53.454;-6.180;2023-08-06T04:09:28;4.20;;;2.03;;
46429;SDS011;32131;53.454;-6.180;2023-08-06T04:11:58;5.78;;;2.53;;
46429;SDS011;32131;53.454;-6.180;2023-08-06T04:14:28;7.95;;;2.28;;
46429;SDS011;32131;53.454;-6.180;2023-08-06T04:16:56;7.63;;;1.92;;
46429;SDS011;32131;53.454;-6.180;2023-08-06T04:19:24;6.13;;;1.88;;
46429;SDS011;32131;53.454;-6.180;2023-08-06T04:21:52;9.45;;;2.47;;
46429;SDS011;32131;53.454;-6.180;2023-08-06T04:24:20;4.53;;;1.90;;
46429;SDS011;32131;53.454;-6.180;2023-08-06T04:26:49;4.40;;;1.95;;
46429;SDS011;32131;53.454;-6.180;2023-08-06T04:29:18;6.15;;;2.20;;
46429;SDS011;32131;53.454;-6.180;2023-08-06T04:31:46;7.32;;;1.98;;
46429;SDS011;32131;53.454;-6.180;2023-08-06T04:34:14;5.85;;;1.83;;
46429;SDS011;32131;53.454;-6.180;2023-08-06T04:36:43;6.22;;;1.83;;
46429;SDS011;32131;53.454;-6.180;2023-08-06T04:39:11;4.45;;;2.20;;
46429;SDS011;32131;53.454;-6.180;2023-08-06T04:41:39;4.00;;;2.03;;
46429;SDS011;32131;53.454;-6.180;2023-08-06T04:44:07;6.50;;;1.83;;
46429;SDS011;32131;53.454;-6.180;2023-08-06T04:46:37;5.85;;;1.98;;
46429;SDS011;32131;53.454;-6.180;2023-08-06T04:49:05;9.32;;;1.90;;
46429;SDS011;32131;53.454;-6.180;2023-08-06T04:51:33;3.50;;;1.85;;
46429;SDS011;32131;53.454;-6.180;2023-08-06T04:54:01;3.60;;;1.83;;
46429;SDS011;32131;53.454;-6.180;2023-08-06T04:56:29;8.10;;;1.88;;
46429;SDS011;32131;53.454;-6.180;2023-08-06T04:58:59;6.60;;;2.20;;
46429;SDS011;32131;53.454;-6.180;2023-08-06T05:01:27;5.40;;;2.10;;
46429;SDS011;32131;53.454;-6.180;2023-08-06T05:03:59;7.05;;;1.85;;
46429;SDS011;32131;53.454;-6.180;2023-08-06T05:06:28;7.47;;;2.30;;
46429;SDS011;32131;53.454;-6.180;2023-08-06T05:08:57;3.35;;;2.05;;
46429;SDS011;32131;53.454;-6.180;2023-08-06T05:11:25;5.03;;;2.00;;
46429;SDS011;32131;53.454;-6.180;2023-08-06T05:13:53;4.22;;;1.92;;
46429;SDS011;32131;53.454;-6.180;2023-08-06T05:16:21;5.80;;;1.90;;
46429;SDS011;32131;53.454;-6.180;2023-08-06T05:18:49;3.38;;;1.70;;
46429;SDS011;32131;53.454;-6.180;2023-08-06T05:21:19;4.30;;;1.92;;
46429;SDS011;32131;53.454;-6.180;2023-08-06T05:23:47;5.72;;;2.03;;
46429;SDS011;32131;53.454;-6.180;2023-08-06T05:26:15;4.05;;;1.80;;
46429;SDS011;32131;53.454;-6.180;2023-08-06T05:31:14;6.20;;;1.95;;
46429;SDS011;32131;53.454;-6.180;2023-08-06T05:33:42;7.60;;;2.20;;
46429;SDS011;32131;53.454;-6.180;2023-08-06T05:36:10;4.97;;;1.90;;
46429;SDS011;32131;53.454;-6.180;2023-08-06T05:38:39;4.07;;;2.05;;
46429;SDS011;32131;53.454;-6.180;2023-08-06T05:41:08;3.47;;;1.90;;
46429;SDS011;32131;53.454;-6.180;2023-08-06T05:43:36;4.15;;;1.83;;
46429;SDS011;32131;53.454;-6.180;2023-08-06T05:46:04;7.07;;;2.20;;
46429;SDS011;32131;53.454;-6.180;2023-08-06T05:48:33;3.97;;;2.08;;
46429;SDS011;32131;53.454;-6.180;2023-08-06T05:51:00;2.85;;;1.73;;
46429;SDS011;32131;53.454;-6.180;2023-08-06T05:53:28;4.57;;;2.08;;
46429;SDS011;32131;53.454;-6.180;2023-08-06T05:55:58;3.35;;;2.05;;
46429;SDS011;32131;53.454;-6.180;2023-08-06T05:58:28;4.32;;;2.10;;
46429;SDS011;32131;53.454;-6.180;2023-08-06T06:00:57;6.22;;;2.15;;
46429;SDS011;32131;53.454;-6.180;2023-08-06T06:03:25;5.88;;;2.50;;
46429;SDS011;32131;53.454;-6.180;2023-08-06T06:05:53;4.60;;;2.70;;
46429;SDS011;32131;53.454;-6.180;2023-08-06T06:08:21;6.03;;;2.88;;
46429;SDS011;32131;53.454;-6.180;2023-08-06T06:10:49;7.85;;;3.22;;
46429;SDS011;32131;53.454;-6.180;2023-08-06T06:13:19;10.65;;;3.67;;
46429;SDS011;32131;53.454;-6.180;2023-08-06T06:15:47;7.40;;;2.38;;
46429;SDS011;32131;53.454;-6.180;2023-08-06T06:18:15;6.55;;;3.00;;
46429;SDS011;32131;53.454;-6.180;2023-08-06T06:20:46;10.73;;;3.85;;
46429;SDS011;32131;53.454;-6.180;2023-08-06T06:23:14;6.53;;;3.47;;
46429;SDS011;32131;53.454;-6.180;2023-08-06T06:25:42;7.38;;;3.40;;
46429;SDS011;32131;53.454;-6.180;2023-08-06T06:28:11;13.80;;;4.13;;
46429;SDS011;32131;53.454;-6.180;2023-08-06T06:30:40;7.75;;;3.53;;
46429;SDS011;32131;53.454;-6.180;2023-08-06T06:35:37;9.68;;;4.03;;
46429;SDS011;32131;53.454;-6.180;2023-08-06T06:38:05;8.27;;;3.72;;
46429;SDS011;32131;53.454;-6.180;2023-08-06T06:40:33;7.10;;;3.90;;
46429;SDS011;32131;53.454;-6.180;2023-08-06T06:43:01;5.80;;;3.30;;
46429;SDS011;32131;53.454;-6.180;2023-08-06T06:45:31;7.72;;;3.83;;
46429;SDS011;32131;53.454;-6.180;2023-08-06T06:48:01;9.13;;;3.33;;
46429;SDS011;32131;53.454;-6.180;2023-08-06T06:50:29;9.23;;;3.75;;
46429;SDS011;32131;53.454;-6.180;2023-08-06T06:52:57;9.55;;;3.80;;
46429;SDS011;32131;53.454;-6.180;2023-08-06T06:55:25;8.90;;;3.65;;
46429;SDS011;32131;53.454;-6.180;2023-08-06T06:57:54;7.72;;;3.97;;
46429;SDS011;32131;53.454;-6.180;2023-08-06T07:00:22;7.25;;;2.80;;
46429;SDS011;32131;53.454;-6.180;2023-08-06T07:02:50;4.35;;;2.70;;
46429;SDS011;32131;53.454;-6.180;2023-08-06T07:05:20;4.93;;;2.90;;
46429;SDS011;32131;53.454;-6.180;2023-08-06T07:07:48;8.48;;;3.00;;
46429;SDS011;32131;53.454;-6.180;2023-08-06T07:10:16;4.10;;;2.47;;
46429;SDS011;32131;53.454;-6.180;2023-08-06T07:12:45;7.68;;;2.72;;
46429;SDS011;32131;53.454;-6.180;2023-08-06T07:15:13;6.30;;;3.03;;
46429;SDS011;32131;53.454;-6.180;2023-08-06T07:17:44;6.25;;;2.45;;
46429;SDS011;32131;53.454;-6.180;2023-08-06T07:20:12;4.50;;;2.20;;
46429;SDS011;32131;53.454;-6.180;2023-08-06T07:22:43;4.28;;;1.92;;
46429;SDS011;32131;53.454;-6.180;2023-08-06T07:25:12;6.32;;;2.80;;
46429;SDS011;32131;53.454;-6.180;2023-08-06T07:27:40;7.97;;;2.72;;
46429;SDS011;32131;53.454;-6.180;2023-08-06T07:30:08;5.03;;;2.75;;
46429;SDS011;32131;53.454;-6.180;2023-08-06T07:32:37;8.63;;;2.83;;
46429;SDS011;32131;53.454;-6.180;2023-08-06T07:35:06;5.00;;;2.53;;
46429;SDS011;32131;53.454;-6.180;2023-08-06T07:37:38;5.18;;;2.00;;
46429;SDS011;32131;53.454;-6.180;2023-08-06T07:40:09;4.72;;;1.90;;
46429;SDS011;32131;53.454;-6.180;2023-08-06T07:42:38;3.50;;;1.90;;
46429;SDS011;32131;53.454;-6.180;2023-08-06T07:45:07;4.93;;;2.38;;
46429;SDS011;32131;53.454;-6.180;2023-08-06T07:47:36;3.63;;;2.00;;
46429;SDS011;32131;53.454;-6.180;2023-08-06T07:50:05;4.18;;;2.05;;
46429;SDS011;32131;53.454;-6.180;2023-08-06T07:52:33;5.68;;;1.73;;
46429;SDS011;32131;53.454;-6.180;2023-08-06T07:55:02;10.00;;;1.90;;
46429;SDS011;32131;53.454;-6.180;2023-08-06T07:57:32;4.47;;;1.85;;
46429;SDS011;32131;53.454;-6.180;2023-08-06T08:00:01;2.75;;;1.40;;
46429;SDS011;32131;53.454;-6.180;2023-08-06T08:02:30;6.30;;;2.10;;
46429;SDS011;32131;53.454;-6.180;2023-08-06T08:04:58;3.95;;;1.63;;
46429;SDS011;32131;53.454;-6.180;2023-08-06T08:07:26;8.45;;;1.90;;
46429;SDS011;32131;53.454;-6.180;2023-08-06T08:09:56;2.38;;;1.08;;
46429;SDS011;32131;53.454;-6.180;2023-08-06T08:12:25;8.73;;;1.95;;
46429;SDS011;32131;53.454;-6.180;2023-08-06T08:14:54;4.20;;;1.83;;
46429;SDS011;32131;53.454;-6.180;2023-08-06T08:17:23;6.05;;;1.83;;
46429;SDS011;32131;53.454;-6.180;2023-08-06T08:19:51;3.65;;;1.40;;
46429;SDS011;32131;53.454;-6.180;2023-08-06T08:22:19;4.47;;;1.67;;
46429;SDS011;32131;53.454;-6.180;2023-08-06T08:24:48;2.70;;;1.40;;
46429;SDS011;32131;53.454;-6.180;2023-08-06T08:27:16;2.55;;;1.23;;
46429;SDS011;32131;53.454;-6.180;2023-08-06T08:29:44;3.22;;;1.67;;
46429;SDS011;32131;53.454;-6.180;2023-08-06T08:32:14;3.00;;;1.40;;
46429;SDS011;32131;53.454;-6.180;2023-08-06T08:34:42;5.50;;;1.55;;
46429;SDS011;32131;53.454;-6.180;2023-08-06T08:37:11;3.28;;;1.60;;
46429;SDS011;32131;53.454;-6.180;2023-08-06T08:39:39;3.97;;;1.40;;
46429;SDS011;32131;53.454;-6.180;2023-08-06T08:42:07;2.88;;;1.15;;
46429;SDS011;32131;53.454;-6.180;2023-08-06T08:44:37;4.53;;;1.48;;
46429;SDS011;32131;53.454;-6.180;2023-08-06T08:47:07;3.00;;;1.20;;
46429;SDS011;32131;53.454;-6.180;2023-08-06T08:49:37;2.38;;;0.95;;
46429;SDS011;32131;53.454;-6.180;2023-08-06T08:54:37;5.65;;;1.40;;
46429;SDS011;32131;53.454;-6.180;2023-08-06T08:57:06;4.10;;;1.30;;
46429;SDS011;32131;53.454;-6.180;2023-08-06T08:59:35;5.03;;;1.15;;
46429;SDS011;32131;53.454;-6.180;2023-08-06T09:02:06;5.15;;;1.20;;
46429;SDS011;32131;53.454;-6.180;2023-08-06T09:04:38;2.28;;;1.02;;
46429;SDS011;32131;53.454;-6.180;2023-08-06T09:07:08;2.90;;;0.90;;
46429;SDS011;32131;53.454;-6.180;2023-08-06T09:09:41;3.88;;;1.00;;
46429;SDS011;32131;53.454;-6.180;2023-08-06T09:12:12;3.67;;;1.17;;
46429;SDS011;32131;53.454;-6.180;2023-08-06T09:14:42;4.95;;;0.98;;
46429;SDS011;32131;53.454;-6.180;2023-08-06T09:17:10;2.35;;;1.08;;
46429;SDS011;32131;53.454;-6.180;2023-08-06T09:19:42;3.03;;;0.90;;
46429;SDS011;32131;53.454;-6.180;2023-08-06T09:22:13;3.38;;;0.75;;
46429;SDS011;32131;53.454;-6.180;2023-08-06T09:24:42;5.00;;;1.23;;
46429;SDS011;32131;53.454;-6.180;2023-08-06T09:27:11;4.47;;;0.95;;
46429;SDS011;32131;53.454;-6.180;2023-08-06T09:29:41;7.97;;;1.30;;
46429;SDS011;32131;53.454;-6.180;2023-08-06T09:32:11;2.33;;;1.02;;
46429;SDS011;32131;53.454;-6.180;2023-08-06T09:34:41;2.03;;;0.90;;
46429;SDS011;32131;53.454;-6.180;2023-08-06T09:37:11;1.75;;;0.68;;
46429;SDS011;32131;53.454;-6.180;2023-08-06T09:39:40;2.90;;;0.77;;
46429;SDS011;32131;53.454;-6.180;2023-08-06T09:42:08;2.05;;;1.00;;
46429;SDS011;32131;53.454;-6.180;2023-08-06T09:44:36;5.07;;;0.82;;
46429;SDS011;32131;53.454;-6.180;2023-08-06T09:47:09;2.90;;;0.95;;
46429;SDS011;32131;53.454;-6.180;2023-08-06T09:49:40;1.20;;;0.63;;
46429;SDS011;32131;53.454;-6.180;2023-08-06T09:52:12;2.60;;;0.50;;
46429;SDS011;32131;53.454;-6.180;2023-08-06T09:54:43;2.92;;;0.73;;
46429;SDS011;32131;53.454;-6.180;2023-08-06T09:57:12;2.15;;;0.73;;
46429;SDS011;32131;53.454;-6.180;2023-08-06T09:59:42;2.13;;;1.00;;
46429;SDS011;32131;53.454;-6.180;2023-08-06T10:02:12;3.00;;;0.90;;
46429;SDS011;32131;53.454;-6.180;2023-08-06T10:04:43;2.03;;;0.60;;
46429;SDS011;32131;53.454;-6.180;2023-08-06T10:07:20;4.57;;;0.63;;
46429;SDS011;32131;53.454;-6.180;2023-08-06T10:09:51;2.55;;;0.93;;
46429;SDS011;32131;53.454;-6.180;2023-08-06T10:12:20;1.40;;;0.55;;
46429;SDS011;32131;53.454;-6.180;2023-08-06T10:14:51;0.77;;;0.45;;
46429;SDS011;32131;53.454;-6.180;2023-08-06T10:17:22;2.20;;;0.50;;
46429;SDS011;32131;53.454;-6.180;2023-08-06T10:20:12;1.98;;;0.90;;
46429;SDS011;32131;53.454;-6.180;2023-08-06T10:25:10;2.53;;;0.70;;
46429;SDS011;32131;53.454;-6.180;2023-08-06T10:27:52;9.55;;;0.90;;
46429;SDS011;32131;53.454;-6.180;2023-08-06T10:30:22;4.72;;;0.80;;
46429;SDS011;32131;53.454;-6.180;2023-08-06T10:32:51;2.78;;;1.02;;
46429;SDS011;32131;53.454;-6.180;2023-08-06T10:35:31;1.90;;;0.50;;
46429;SDS011;32131;53.454;-6.180;2023-08-06T10:38:06;2.72;;;0.88;;
46429;SDS011;32131;53.454;-6.180;2023-08-06T10:40:36;4.53;;;0.85;;
46429;SDS011;32131;53.454;-6.180;2023-08-06T10:43:06;3.25;;;0.63;;
46429;SDS011;32131;53.454;-6.180;2023-08-06T10:45:37;2.25;;;0.77;;
46429;SDS011;32131;53.454;-6.180;2023-08-06T10:48:06;2.20;;;0.67;;
46429;SDS011;32131;53.454;-6.180;2023-08-06T10:50:38;3.78;;;0.70;;
46429;SDS011;32131;53.454;-6.180;2023-08-06T10:53:07;2.55;;;0.75;;
46429;SDS011;32131;53.454;-6.180;2023-08-06T10:55:35;2.05;;;0.85;;
46429;SDS011;32131;53.454;-6.180;2023-08-06T10:58:04;1.33;;;0.70;;
46429;SDS011;32131;53.454;-6.180;2023-08-06T11:00:33;1.10;;;0.52;;
46429;SDS011;32131;53.454;-6.180;2023-08-06T11:03:01;1.80;;;0.43;;
46429;SDS011;32131;53.454;-6.180;2023-08-06T11:05:31;2.13;;;0.52;;
46429;SDS011;32131;53.454;-6.180;2023-08-06T11:08:01;1.90;;;0.60;;
46429;SDS011;32131;53.454;-6.180;2023-08-06T11:10:32;1.38;;;0.30;;
46429;SDS011;32131;53.454;-6.180;2023-08-06T11:13:02;1.65;;;0.52;;
46429;SDS011;32131;53.454;-6.180;2023-08-06T11:15:31;0.73;;;0.38;;
46429;SDS011;32131;53.454;-6.180;2023-08-06T11:18:00;0.60;;;0.40;;
46429;SDS011;32131;53.454;-6.180;2023-08-06T11:20:29;1.80;;;0.57;;
46429;SDS011;32131;53.454;-6.180;2023-08-06T11:22:57;0.73;;;0.43;;
46429;SDS011;32131;53.454;-6.180;2023-08-06T11:25:28;2.37;;;0.60;;
46429;SDS011;32131;53.454;-6.180;2023-08-06T11:27:56;1.02;;;0.50;;
46429;SDS011;32131;53.454;-6.180;2023-08-06T11:30:26;0.73;;;0.30;;
46429;SDS011;32131;53.454;-6.180;2023-08-06T11:35:24;1.17;;;0.40;;
46429;SDS011;32131;53.454;-6.180;2023-08-06T11:37:52;3.47;;;0.40;;
46429;SDS011;32131;53.454;-6.180;2023-08-06T11:40:21;2.05;;;0.47;;
46429;SDS011;32131;53.454;-6.180;2023-08-06T11:42:51;1.20;;;0.50;;
46429;SDS011;32131;53.454;-6.180;2023-08-06T11:45:21;1.50;;;0.63;;
46429;SDS011;32131;53.454;-6.180;2023-08-06T11:47:50;1.23;;;0.40;;
46429;SDS011;32131;53.454;-6.180;2023-08-06T11:50:23;2.08;;;0.50;;
46429;SDS011;32131;53.454;-6.180;2023-08-06T11:52:56;2.17;;;0.55;;
46429;SDS011;32131;53.454;-6.180;2023-08-06T11:55:25;1.58;;;0.40;;
46429;SDS011;32131;53.454;-6.180;2023-08-06T11:57:57;3.30;;;0.50;;
46429;SDS011;32131;53.454;-6.180;2023-08-06T12:00:26;1.50;;;0.25;;
46429;SDS011;32131;53.454;-6.180;2023-08-06T12:02:54;0.73;;;0.32;;
46429;SDS011;32131;53.454;-6.180;2023-08-06T12:05:22;0.70;;;0.30;;
46429;SDS011;32131;53.454;-6.180;2023-08-06T12:07:52;0.63;;;0.30;;
46429;SDS011;32131;53.454;-6.180;2023-08-06T12:10:23;0.70;;;0.30;;
46429;SDS011;32131;53.454;-6.180;2023-08-06T12:12:52;0.63;;;0.30;;
46429;SDS011;32131;53.454;-6.180;2023-08-06T12:15:23;1.60;;;0.50;;
46429;SDS011;32131;53.454;-6.180;2023-08-06T12:20:20;1.23;;;0.40;;
46429;SDS011;32131;53.454;-6.180;2023-08-06T12:22:48;1.42;;;0.30;;
46429;SDS011;32131;53.454;-6.180;2023-08-06T12:25:16;0.63;;;0.40;;
46429;SDS011;32131;53.454;-6.180;2023-08-06T12:27:46;1.77;;;0.30;;
46429;SDS011;32131;53.454;-6.180;2023-08-06T12:30:14;0.15;;;0.10;;
46429;SDS011;32131;53.454;-6.180;2023-08-06T12:32:44;0.45;;;0.25;;
46429;SDS011;32131;53.454;-6.180;2023-08-06T12:35:12;0.30;;;0.10;;
46429;SDS011;32131;53.454;-6.180;2023-08-06T12:37:40;1.55;;;0.13;;
46429;SDS011;32131;53.454;-6.180;2023-08-06T12:40:13;0.90;;;0.25;;
46429;SDS011;32131;53.454;-6.180;2023-08-06T12:43:01;0.98;;;0.40;;
46429;SDS011;32131;53.454;-6.180;2023-08-06T12:45:29;0.25;;;0.15;;
46429;SDS011;32131;53.454;-6.180;2023-08-06T12:47:59;0.52;;;0.20;;
46429;SDS011;32131;53.454;-6.180;2023-08-06T12:50:29;0.80;;;0.20;;
46429;SDS011;32131;53.454;-6.180;2023-08-06T12:52:59;0.40;;;0.20;;
46429;SDS011;32131;53.454;-6.180;2023-08-06T12:55:28;0.93;;;0.30;;
46429;SDS011;32131;53.454;-6.180;2023-08-06T12:57:59;0.65;;;0.28;;
46429;SDS011;32131;53.454;-6.180;2023-08-06T13:00:27;1.85;;;0.30;;
46429;SDS011;32131;53.454;-6.180;2023-08-06T13:02:55;0.20;;;0.10;;
46429;SDS011;32131;53.454;-6.180;2023-08-06T13:05:25;0.70;;;0.10;;
46429;SDS011;32131;53.454;-6.180;2023-08-06T13:07:53;1.85;;;0.63;;
46429;SDS011;32131;53.454;-6.180;2023-08-06T13:10:23;1.58;;;0.45;;
46429;SDS011;32131;53.454;-6.180;2023-08-06T13:12:52;1.40;;;0.50;;
46429;SDS011;32131;53.454;-6.180;2023-08-06T13:15:20;1.45;;;0.50;;
46429;SDS011;32131;53.454;-6.180;2023-08-06T13:17:49;2.25;;;0.32;;
46429;SDS011;32131;53.454;-6.180;2023-08-06T13:20:18;5.77;;;0.30;;
46429;SDS011;32131;53.454;-6.180;2023-08-06T13:22:48;0.90;;;0.20;;
46429;SDS011;32131;53.454;-6.180;2023-08-06T13:25:19;0.00;;;0.00;;
46429;SDS011;32131;53.454;-6.180;2023-08-06T13:27:48;0.47;;;0.20;;
46429;SDS011;32131;53.454;-6.180;2023-08-06T13:30:16;0.32;;;0.10;;
46429;SDS011;32131;53.454;-6.180;2023-08-06T13:32:45;0.77;;;0.35;;
46429;SDS011;32131;53.454;-6.180;2023-08-06T13:35:13;1.17;;;0.40;;
46429;SDS011;32131;53.454;-6.180;2023-08-06T13:37:42;3.95;;;0.63;;
46429;SDS011;32131;53.454;-6.180;2023-08-06T13:40:11;0.82;;;0.50;;
46429;SDS011;32131;53.454;-6.180;2023-08-06T13:42:39;0.60;;;0.28;;
46429;SDS011;32131;53.454;-6.180;2023-08-06T13:45:08;1.58;;;0.63;;
46429;SDS011;32131;53.454;-6.180;2023-08-06T13:47:37;2.13;;;0.57;;
46429;SDS011;32131;53.454;-6.180;2023-08-06T13:50:05;2.25;;;0.30;;
46429;SDS011;32131;53.454;-6.180;2023-08-06T13:52:34;0.38;;;0.15;;
46429;SDS011;32131;53.454;-6.180;2023-08-06T13:55:03;1.55;;;0.22;;
46429;SDS011;32131;53.454;-6.180;2023-08-06T13:57:33;0.65;;;0.25;;
46429;SDS011;32131;53.454;-6.180;2023-08-06T14:00:02;0.77;;;0.30;;
46429;SDS011;32131;53.454;-6.180;2023-08-06T14:02:32;1.23;;;0.13;;
46429;SDS011;32131;53.454;-6.180;2023-08-06T14:05:01;3.05;;;0.38;;
46429;SDS011;32131;53.454;-6.180;2023-08-06T14:07:29;1.90;;;0.73;;
46429;SDS011;32131;53.454;-6.180;2023-08-06T14:09:57;1.15;;;0.40;;
46429;SDS011;32131;53.454;-6.180;2023-08-06T14:12:25;1.25;;;0.40;;
46429;SDS011;32131;53.454;-6.180;2023-08-06T14:14:55;0.75;;;0.38;;
46429;SDS011;32131;53.454;-6.180;2023-08-06T14:17:26;0.55;;;0.25;;
46429;SDS011;32131;53.454;-6.180;2023-08-06T14:19:55;1.02;;;0.43;;
46429;SDS011;32131;53.454;-6.180;2023-08-06T14:22:23;0.98;;;0.40;;
46429;SDS011;32131;53.454;-6.180;2023-08-06T14:24:51;1.27;;;0.40;;
46429;SDS011;32131;53.454;-6.180;2023-08-06T14:29:49;0.73;;;0.20;;
46429;SDS011;32131;53.454;-6.180;2023-08-06T14:32:19;0.70;;;0.30;;
46429;SDS011;32131;53.454;-6.180;2023-08-06T14:34:47;0.55;;;0.30;;
46429;SDS011;32131;53.454;-6.180;2023-08-06T14:37:15;1.05;;;0.30;;
46429;SDS011;32131;53.454;-6.180;2023-08-06T14:39:44;2.20;;;0.30;;
46429;SDS011;32131;53.454;-6.180;2023-08-06T14:42:12;1.10;;;0.30;;
46429;SDS011;32131;53.454;-6.180;2023-08-06T14:44:40;0.57;;;0.28;;
46429;SDS011;32131;53.454;-6.180;2023-08-06T14:47:08;0.50;;;0.10;;
46429;SDS011;32131;53.454;-6.180;2023-08-06T14:49:38;3.03;;;0.40;;
46429;SDS011;32131;53.454;-6.180;2023-08-06T14:52:06;0.98;;;0.32;;
46429;SDS011;32131;53.454;-6.180;2023-08-06T14:54:34;2.47;;;0.40;;
46429;SDS011;32131;53.454;-6.180;2023-08-06T14:57:03;1.38;;;0.22;;
46429;SDS011;32131;53.454;-6.180;2023-08-06T14:59:31;0.98;;;0.25;;
46429;SDS011;32131;53.454;-6.180;2023-08-06T15:02:00;1.15;;;0.40;;